Time;durP1;ratioP1;P1;durP2;ratioP2;P2;SDS_P1;SDS_P2;PMS_P1;PMS_P2;Temp;Humidity;BMP_temperature;BMP_pressure;BME280_temperature;BME280_humidity;BME280_pressure;Samples;Min_cycle;Max_cycle;Signal;HPM_P1;HPM_P2
2024/03/29 00:02:20;;;;;;;0.05;0.05;;;;;;;10.96;62.79;99023.34;4470507;32;34085;-86
2024/03/29 00:04:47;;;;;;;0.00;0.00;;;;;;;11.16;61.61;99014.28;4444711;32;33970;-86
2024/03/29 00:07:13;;;;;;;0.00;0.00;;;;;;;11.18;61.19;99027.41;4444554;32;32239;-86
2024/03/29 00:09:40;;;;;;;0.00;0.00;;;;;;;10.81;61.99;99040.09;4444304;32;33554;-86
2024/03/29 00:12:07;;;;;;;0.25;0.25;;;;;;;10.79;62.91;99068.38;4470680;32;34653;-86
2024/03/29 00:14:33;;;;;;;0.20;0.20;;;;;;;10.99;61.17;99060.16;4456986;32;33843;-86
2024/03/29 00:17:04;;;;;;;0.00;0.00;;;;;;;10.99;60.70;99054.03;4452532;32;32529;-83
2024/03/29 00:19:32;;;;;;;0.03;0.03;;;;;;;11.07;60.64;99058.91;4454265;32;32974;-83
2024/03/29 00:21:58;;;;;;;0.00;0.00;;;;;;;10.99;60.42;99089.22;4443190;32;34209;-83
2024/03/29 00:24:25;;;;;;;0.00;0.00;;;;;;;10.90;59.40;99087.09;4447826;32;34500;-81
2024/03/29 00:26:51;;;;;;;0.00;0.00;;;;;;;10.61;60.22;99094.00;4454333;32;33552;-81
2024/03/29 00:29:18;;;;;;;1.27;0.10;;;;;;;10.71;60.06;99089.06;4436869;32;32480;-81
2024/03/29 00:31:45;;;;;;;0.00;0.00;;;;;;;10.78;59.56;99087.81;4461270;32;33874;-81
2024/03/29 00:34:12;;;;;;;0.00;0.00;;;;;;;10.76;59.79;99102.88;4466461;32;35477;-81
2024/03/29 00:36:38;;;;;;;0.10;0.10;;;;;;;11.07;58.74;99117.03;4470743;32;33263;-81
2024/03/29 00:39:05;;;;;;;0.00;0.00;;;;;;;11.34;58.20;99104.84;4444161;32;32258;-82
2024/03/29 00:41:32;;;;;;;0.00;0.00;;;;;;;11.34;58.36;99101.34;4456724;32;34951;-82
2024/03/29 00:43:58;;;;;;;0.00;0.00;;;;;;;11.15;59.01;99101.56;4456346;32;32701;-82
2024/03/29 00:46:25;;;;;;;0.00;0.00;;;;;;;11.16;58.15;99117.34;4443058;32;31445;-82
2024/03/29 00:48:52;;;;;;;0.00;0.00;;;;;;;11.26;58.73;99125.59;4444143;32;34303;-82
2024/03/29 00:51:18;;;;;;;0.00;0.00;;;;;;;11.32;59.09;99133.16;4451652;32;33905;-82
2024/03/29 00:53:45;;;;;;;0.00;0.00;;;;;;;11.26;59.38;99150.22;4466101;32;34261;-82
2024/03/29 00:56:11;;;;;;;0.00;0.00;;;;;;;11.25;59.28;99139.72;4456251;32;33054;-82
2024/03/29 00:58:38;;;;;;;0.90;0.65;;;;;;;11.21;59.33;99148.78;4464616;32;33067;-82
2024/03/29 01:01:04;;;;;;;0.00;0.00;;;;;;;11.41;58.61;99130.00;4456545;32;32877;-82
2024/03/29 01:03:31;;;;;;;0.00;0.00;;;;;;;11.43;58.98;99143.12;4443389;32;34247;-82
2024/03/29 01:05:58;;;;;;;0.00;0.00;;;;;;;11.44;58.68;99145.69;4455484;32;32973;-82
2024/03/29 01:08:24;;;;;;;0.08;0.08;;;;;;;11.17;59.75;99142.81;4469854;32;32801;-82
2024/03/29 01:10:51;;;;;;;0.00;0.00;;;;;;;11.24;59.74;99138.03;4443182;32;35669;-82
2024/03/29 01:13:19;;;;;;;0.00;0.00;;;;;;;11.36;59.16;99141.78;4456661;32;33053;-83
2024/03/29 01:15:45;;;;;;;0.00;0.00;;;;;;;11.33;59.57;99147.22;4456203;32;32624;-83
2024/03/29 01:18:12;;;;;;;0.47;0.47;;;;;;;11.28;58.80;99163.34;4444340;32;34132;-83
2024/03/29 01:20:39;;;;;;;0.00;0.00;;;;;;;10.99;59.93;99171.13;4443177;32;33853;-83
2024/03/29 01:23:05;;;;;;;0.00;0.00;;;;;;;10.89;60.28;99180.50;4443692;32;32738;-83
2024/03/29 01:25:33;;;;;;;0.00;0.00;;;;;;;11.03;59.80;99183.22;4443489;32;34214;-83
2024/03/29 01:28:00;;;;;;;0.00;0.00;;;;;;;11.31;58.58;99176.41;4456380;32;32951;-83
2024/03/29 01:30:27;;;;;;;0.00;0.00;;;;;;;11.45;56.69;99181.75;4455911;32;33487;-83
2024/03/29 01:32:55;;;;;;;0.00;0.00;;;;;;;11.48;55.84;99168.34;4456802;32;34207;-83
2024/03/29 01:35:21;;;;;;;0.00;0.00;;;;;;;11.32;56.57;99166.69;4443201;32;32131;-83
2024/03/29 01:37:48;;;;;;;0.00;0.00;;;;;;;11.23;56.34;99174.19;4456126;32;32224;-83
2024/03/29 01:40:15;;;;;;;0.00;0.00;;;;;;;11.13;57.19;99169.50;4456204;32;33538;-83
2024/03/29 01:42:41;;;;;;;0.80;0.35;;;;;;;11.26;56.54;99175.81;4455931;32;33341;-83
2024/03/29 01:45:08;;;;;;;0.00;0.00;;;;;;;11.50;54.88;99177.06;4449714;32;33281;-82
2024/03/29 01:47:35;;;;;;;0.00;0.00;;;;;;;11.31;55.05;99181.69;4438867;32;34076;-83
2024/03/29 01:50:02;;;;;;;0.00;0.00;;;;;;;11.23;55.11;99189.19;4450932;32;33085;-83
2024/03/29 01:52:29;;;;;;;0.00;0.00;;;;;;;11.26;55.00;99194.31;4451284;32;32966;-84
2024/03/29 01:54:56;;;;;;;0.00;0.00;;;;;;;11.53;54.50;99190.06;4448972;32;34985;-83
2024/03/29 01:57:23;;;;;;;0.22;0.22;;;;;;;11.46;54.78;99201.97;4440722;32;32894;-82
2024/03/29 01:59:50;;;;;;;0.00;0.00;;;;;;;11.47;54.77;99208.94;4454275;32;33212;-82
2024/03/29 02:02:16;;;;;;;0.00;0.00;;;;;;;10.97;56.33;99215.28;4456528;32;33576;-82
2024/03/29 02:04:43;;;;;;;0.00;0.00;;;;;;;10.64;58.20;99225.00;4455273;32;34257;-82
2024/03/29 02:07:10;;;;;;;0.00;0.00;;;;;;;10.82;56.94;99226.63;4456144;32;34199;-82
2024/03/29 02:09:36;;;;;;;0.00;0.00;;;;;;;10.88;57.47;99236.06;4455723;32;33282;-81
2024/03/29 02:12:03;;;;;;;2.00;0.32;;;;;;;10.75;57.39;99243.75;4429952;32;34143;-82
2024/03/29 02:14:30;;;;;;;0.00;0.00;;;;;;;10.86;57.59;99246.66;4442950;32;32113;-81
2024/03/29 02:16:56;;;;;;;0.00;0.00;;;;;;;11.09;56.67;99252.50;4470451;32;33622;-81
2024/03/29 02:19:24;;;;;;;0.00;0.00;;;;;;;11.00;57.20;99265.28;4445135;32;33186;-82
2024/03/29 02:21:54;;;;;;;0.00;0.00;;;;;;;10.93;57.48;99276.28;4470959;32;33043;-82
2024/03/29 02:24:21;;;;;;;0.00;0.00;;;;;;;10.68;57.46;99279.34;4445041;32;32482;-82
2024/03/29 02:26:48;;;;;;;0.00;0.00;;;;;;;10.30;59.17;99292.72;4458286;32;34532;-82
2024/03/29 02:29:15;;;;;;;0.00;0.00;;;;;;;10.34;58.93;99299.56;4470087;32;32828;-83
2024/03/29 02:31:41;;;;;;;0.00;0.00;;;;;;;10.34;58.99;99299.56;4457870;32;33637;-82
2024/03/29 02:34:09;;;;;;;0.00;0.00;;;;;;;10.22;59.52;99316.84;4458306;32;32863;-82
2024/03/29 02:36:37;;;;;;;0.00;0.00;;;;;;;10.30;59.63;99321.75;4470538;32;33850;-82
2024/03/29 02:39:03;;;;;;;0.22;0.22;;;;;;;10.62;58.11;99325.41;4457976;32;32356;-82
2024/03/29 02:41:30;;;;;;;0.00;0.00;;;;;;;10.41;58.80;99331.78;4457768;32;34135;-82
2024/03/29 02:43:57;;;;;;;0.00;0.00;;;;;;;10.24;58.83;99329.97;4471113;32;33452;-82
2024/03/29 02:46:23;;;;;;;0.00;0.00;;;;;;;10.08;59.73;99339.56;4446758;32;34055;-82
2024/03/29 02:48:50;;;;;;;0.00;0.00;;;;;;;10.14;59.71;99344.53;4435418;32;34761;-82
2024/03/29 02:51:23;;;;;;;0.00;0.00;;;;;;;10.22;58.91;99352.94;4455079;32;33053;-82
2024/03/29 02:53:49;;;;;;;0.00;0.00;;;;;;;10.21;59.12;99356.50;4441856;32;32349;-82
2024/03/29 02:56:20;;;;;;;0.00;0.00;;;;;;;10.15;58.71;99367.34;4431337;32;35238;-82
2024/03/29 02:58:48;;;;;;;0.00;0.00;;;;;;;10.06;59.30;99376.53;4442040;32;34159;-83
2024/03/29 03:01:14;;;;;;;0.00;0.00;;;;;;;9.90;59.26;99379.06;4426962;32;32337;-83
2024/03/29 03:03:41;;;;;;;0.00;0.00;;;;;;;9.87;59.24;99368.66;4442393;32;34231;-83
2024/03/29 03:06:07;;;;;;;0.00;0.00;;;;;;;9.95;59.09;99365.66;4441888;32;32327;-83
2024/03/29 03:11:20;;;;;;;0.00;0.00;;;;;;;9.77;59.12;99372.66;4456872;32;33923;-81
2024/03/29 03:13:46;;;;;;;0.00;0.00;;;;;;;9.51;60.52;99386.22;4442162;32;33399;-81
2024/03/29 03:16:13;;;;;;;0.00;0.00;;;;;;;9.41;60.26;99389.28;4441047;32;33689;-82
2024/03/29 03:18:40;;;;;;;0.00;0.00;;;;;;;9.35;60.62;99394.81;4436331;32;35866;-82
2024/03/29 03:21:07;;;;;;;0.00;0.00;;;;;;;9.42;60.17;99396.25;4448565;32;34024;-83
2024/03/29 03:23:33;;;;;;;0.00;0.00;;;;;;;9.33;60.76;99393.16;4460878;32;33796;-83
2024/03/29 03:26:05;;;;;;;3.30;0.57;;;;;;;9.41;60.46;99391.06;4431885;32;35479;-83
2024/03/29 03:28:32;;;;;;;0.00;0.00;;;;;;;9.21;60.43;99403.34;4442253;32;33125;-81
2024/03/29 03:30:58;;;;;;;0.00;0.00;;;;;;;9.18;61.02;99394.72;4454999;32;34637;-81
2024/03/29 03:33:25;;;;;;;0.10;0.10;;;;;;;8.65;62.53;99405.78;4446673;32;33243;-81
2024/03/29 03:35:51;;;;;;;0.00;0.00;;;;;;;8.63;62.43;99407.63;4449077;32;33560;-82
2024/03/29 03:38:18;;;;;;;0.00;0.00;;;;;;;8.89;61.68;99404.75;4448163;32;33478;-84
2024/03/29 03:40:45;;;;;;;0.00;0.00;;;;;;;8.84;61.57;99404.09;4441637;32;33535;-84
2024/03/29 03:43:11;;;;;;;0.00;0.00;;;;;;;8.97;60.92;99407.91;4445706;32;32571;-82
2024/03/29 03:45:39;;;;;;;0.00;0.00;;;;;;;8.79;61.62;99419.22;4458568;32;33965;-82
2024/03/29 03:48:11;;;;;;;0.00;0.00;;;;;;;9.14;60.01;99419.47;4441189;32;32168;-82
2024/03/29 03:50:38;;;;;;;0.00;0.00;;;;;;;8.77;60.89;99420.19;4444319;32;33167;-83
2024/03/29 03:53:04;;;;;;;0.00;0.00;;;;;;;8.45;62.06;99425.03;4456688;32;32497;-83
2024/03/29 03:55:35;;;;;;;0.00;0.00;;;;;;;8.41;62.28;99418.19;4431732;32;35074;-83
2024/03/29 03:58:02;;;;;;;0.00;0.00;;;;;;;8.20;62.96;99423.34;4456359;32;33014;-82
2024/03/29 04:00:29;;;;;;;0.00;0.00;;;;;;;8.62;61.41;99413.81;4456637;32;34661;-82
2024/03/29 04:02:56;;;;;;;0.95;0.37;;;;;;;8.53;61.72;99429.97;4445111;32;32145;-82
2024/03/29 04:05:24;;;;;;;0.00;0.00;;;;;;;8.61;61.05;99431.38;4449790;32;33399;-82
2024/03/29 04:07:51;;;;;;;0.05;0.05;;;;;;;8.62;61.41;99432.22;4453904;32;33879;-82
2024/03/29 04:10:18;;;;;;;0.00;0.00;;;;;;;8.56;61.17;99445.66;4434019;32;34299;-82
2024/03/29 04:12:44;;;;;;;0.00;0.00;;;;;;;8.36;62.04;99452.59;4456286;32;32796;-83
2024/03/29 04:15:11;;;;;;;0.00;0.00;;;;;;;8.32;62.89;99456.22;4466980;32;31869;-82
2024/03/29 04:17:37;;;;;;;0.00;0.00;;;;;;;8.32;61.85;99450.97;4437439;32;34567;-82
2024/03/29 04:20:04;;;;;;;0.00;0.00;;;;;;;8.27;62.45;99462.59;4448945;32;32358;-82
2024/03/29 04:22:31;;;;;;;0.00;0.00;;;;;;;8.38;62.03;99466.53;4444150;32;32484;-82
2024/03/29 04:24:58;;;;;;;0.15;0.15;;;;;;;8.18;62.83;99482.22;4431857;32;34240;-83
2024/03/29 04:27:25;;;;;;;0.15;0.15;;;;;;;8.37;61.84;99480.59;4457286;32;33862;-84
2024/03/29 04:29:52;;;;;;;0.75;0.45;;;;;;;8.19;61.97;99481.28;4457296;32;32755;-84
2024/03/29 04:32:20;;;;;;;0.52;0.52;;;;;;;8.42;61.59;99478.62;4423112;32;33926;-83
2024/03/29 04:34:49;;;;;;;0.00;0.00;;;;;;;8.27;62.24;99492.38;4469349;32;33667;-82
2024/03/29 04:37:16;;;;;;;0.00;0.00;;;;;;;8.16;62.92;99481.38;4465687;32;33214;-82
2024/03/29 04:39:44;;;;;;;0.00;0.00;;;;;;;8.17;62.51;99488.38;4443372;32;32501;-84
2024/03/29 04:42:11;;;;;;;0.00;0.00;;;;;;;8.04;62.50;99489.78;4457139;32;33914;-84
2024/03/29 04:44:38;;;;;;;0.30;0.25;;;;;;;8.14;61.94;99501.66;4457276;32;33166;-84
2024/03/29 04:47:05;;;;;;;0.30;0.30;;;;;;;8.20;62.35;99510.16;4470726;32;33617;-83
2024/03/29 04:49:36;;;;;;;0.00;0.00;;;;;;;8.24;62.38;99516.16;4451047;32;33607;-83
2024/03/29 04:52:06;;;;;;;1.27;1.10;;;;;;;8.12;62.38;99512.25;4438550;32;31661;-83
2024/03/29 04:54:34;;;;;;;0.00;0.00;;;;;;;8.17;62.03;99510.28;4463796;32;34628;-81
2024/03/29 04:57:06;;;;;;;0.10;0.10;;;;;;;8.17;62.51;99517.31;4445913;32;32959;-81
2024/03/29 04:59:33;;;;;;;0.00;0.00;;;;;;;7.95;63.01;99528.63;4446964;32;33064;-81
2024/03/29 05:02:00;;;;;;;0.00;0.00;;;;;;;8.18;62.83;99521.66;4448034;32;33218;-81
2024/03/29 05:04:26;;;;;;;0.00;0.00;;;;;;;8.14;62.36;99523.53;4450659;32;33140;-81
2024/03/29 05:07:02;;;;;;;0.00;0.00;;;;;;;8.29;61.56;99529.97;4445098;32;32990;-82
2024/03/29 05:09:29;;;;;;;0.00;0.00;;;;;;;8.20;62.37;99536.44;4445304;32;33512;-82
2024/03/29 05:11:56;;;;;;;0.00;0.00;;;;;;;8.15;63.28;99542.81;4462367;32;34193;-83
2024/03/29 05:14:22;;;;;;;0.00;0.00;;;;;;;8.32;62.37;99544.81;4444329;32;32679;-82
2024/03/29 05:16:49;;;;;;;0.00;0.00;;;;;;;8.64;60.80;99543.56;4461513;32;34389;-82
2024/03/29 05:19:16;;;;;;;0.30;0.30;;;;;;;8.81;61.29;99542.88;4462056;32;33361;-81
2024/03/29 05:21:42;;;;;;;0.15;0.15;;;;;;;8.54;62.16;99539.56;4449733;32;33146;-83
2024/03/29 05:24:09;;;;;;;0.00;0.00;;;;;;;8.61;62.46;99543.69;4459644;32;33443;-82
2024/03/29 05:26:36;;;;;;;0.00;0.00;;;;;;;8.48;63.06;99540.69;4461952;32;34316;-82
2024/03/29 05:29:04;;;;;;;0.00;0.00;;;;;;;8.64;63.05;99544.44;4448027;32;34364;-81
2024/03/29 05:31:30;;;;;;;0.00;0.00;;;;;;;8.69;62.70;99545.09;4451011;32;34326;-82
2024/03/29 05:33:57;;;;;;;0.00;0.00;;;;;;;9.12;61.96;99539.88;4436286;32;34313;-82
2024/03/29 05:36:23;;;;;;;0.15;0.15;;;;;;;9.01;62.29;99549.97;4445844;32;33618;-82
2024/03/29 05:38:50;;;;;;;0.00;0.00;;;;;;;8.82;63.43;99563.88;4445832;32;33123;-82
2024/03/29 05:41:18;;;;;;;0.00;0.00;;;;;;;9.06;63.02;99561.16;4447958;32;34388;-82
2024/03/29 05:43:44;;;;;;;0.35;0.35;;;;;;;9.41;62.57;99562.34;4474676;32;32634;-82
2024/03/29 05:46:11;;;;;;;0.00;0.00;;;;;;;9.41;63.43;99562.34;4449844;32;32440;-81
2024/03/29 05:48:38;;;;;;;0.00;0.00;;;;;;;9.12;64.69;99574.09;4423992;32;34207;-82
2024/03/29 05:51:09;;;;;;;0.00;0.00;;;;;;;9.03;65.13;99571.84;4447376;32;33158;-81
2024/03/29 05:53:36;;;;;;;0.00;0.00;;;;;;;9.27;66.10;99578.72;4433422;32;33228;-82
2024/03/29 05:56:04;;;;;;;0.00;0.00;;;;;;;9.58;65.43;99572.13;4446838;32;33997;-81
2024/03/29 05:58:30;;;;;;;1.55;1.05;;;;;;;9.86;65.32;99579.72;4456459;32;33652;-82
2024/03/29 06:00:57;;;;;;;0.00;0.00;;;;;;;10.10;63.21;99575.09;4462506;32;33285;-82
2024/03/29 06:03:24;;;;;;;0.00;0.00;;;;;;;9.64;65.47;99582.44;4423068;32;32557;-82
2024/03/29 06:05:51;;;;;;;0.00;0.00;;;;;;;9.94;64.54;99574.97;4456773;32;32613;-82
2024/03/29 06:08:17;;;;;;;0.30;0.30;;;;;;;9.32;66.13;99596.97;4448361;32;32740;-82
2024/03/29 06:10:45;;;;;;;0.55;0.52;;;;;;;9.57;65.20;99594.16;4430230;32;34202;-82
2024/03/29 06:13:27;;;;;;;0.00;0.00;;;;;;;9.95;64.59;99595.13;4446063;32;32581;-82
2024/03/29 06:18:40;;;;;;;0.00;0.00;;;;;;;10.20;64.37;99589.59;4458496;32;33854;-82
2024/03/29 06:21:07;;;;;;;0.13;0.13;;;;;;;10.80;62.47;99592.97;4433151;32;33403;-82
2024/03/29 06:23:34;;;;;;;0.15;0.15;;;;;;;10.70;62.73;99597.84;4438256;32;32695;-82
2024/03/29 06:26:01;;;;;;;0.70;0.52;;;;;;;10.69;62.71;99590.00;4459812;32;32845;-82
2024/03/29 06:28:29;;;;;;;7.25;1.98;;;;;;;10.66;62.51;99590.16;4438993;32;32581;-82
2024/03/29 06:30:55;;;;;;;0.70;0.65;;;;;;;10.54;62.74;99591.59;4456165;32;31609;-82
2024/03/29 06:33:22;;;;;;;0.00;0.00;;;;;;;10.89;61.93;99596.97;4445467;32;33921;-82
2024/03/29 06:35:55;;;;;;;0.77;0.77;;;;;;;10.83;62.42;99599.91;4425544;32;34185;-82
2024/03/29 06:38:22;;;;;;;0.00;0.00;;;;;;;11.18;61.45;99608.75;4445486;32;33489;-82
2024/03/29 06:40:49;;;;;;;0.52;0.28;;;;;;;10.56;63.17;99615.28;4434221;32;33888;-82
2024/03/29 06:43:15;;;;;;;0.00;0.00;;;;;;;11.24;61.18;99609.31;4459037;32;33574;-82
2024/03/29 06:45:45;;;;;;;0.00;0.00;;;;;;;11.53;60.79;99601.69;4431037;32;32813;-83
2024/03/29 06:48:12;;;;;;;0.00;0.00;;;;;;;11.93;59.84;99602.34;4433754;32;34498;-83
2024/03/29 06:50:40;;;;;;;0.00;0.00;;;;;;;11.97;59.16;99599.47;4446297;32;33117;-82
2024/03/29 06:53:08;;;;;;;0.15;0.15;;;;;;;12.00;58.57;99591.34;4432950;32;34041;-82
2024/03/29 06:55:37;;;;;;;0.43;0.43;;;;;;;11.85;58.47;99586.84;4443696;32;33502;-82
2024/03/29 06:58:04;;;;;;;0.00;0.00;;;;;;;11.51;59.61;99596.50;4448369;32;35217;-83
2024/03/29 07:00:30;;;;;;;0.00;0.00;;;;;;;11.90;58.50;99598.06;4447753;32;32987;-83
2024/03/29 07:02:57;;;;;;;0.00;0.00;;;;;;;11.98;58.84;99605.59;4423411;32;34662;-83
2024/03/29 07:05:24;;;;;;;0.00;0.00;;;;;;;11.75;58.92;99614.69;4427525;32;33355;-83
2024/03/29 07:07:51;;;;;;;0.00;0.00;;;;;;;12.28;57.61;99609.25;4452476;32;33036;-82
2024/03/29 07:10:18;;;;;;;0.00;0.00;;;;;;;12.46;57.86;99622.44;4447430;32;34085;-82
2024/03/29 07:12:44;;;;;;;0.00;0.00;;;;;;;12.34;57.65;99623.09;4434752;32;33044;-83
2024/03/29 07:15:12;;;;;;;0.30;0.30;;;;;;;12.71;57.01;99611.34;4441023;32;33942;-83
2024/03/29 07:17:40;;;;;;;0.10;0.00;;;;;;;12.68;56.66;99617.69;4447444;32;32996;-83
2024/03/29 07:20:08;;;;;;;0.00;0.00;;;;;;;13.22;56.08;99625.31;4458771;32;33291;-83
2024/03/29 07:22:34;;;;;;;4.75;0.65;;;;;;;13.10;56.19;99632.09;4430731;32;33102;-82
2024/03/29 07:25:02;;;;;;;0.00;0.00;;;;;;;13.24;55.71;99626.06;4457670;32;33777;-82
2024/03/29 07:27:33;;;;;;;0.00;0.00;;;;;;;12.81;54.84;99629.28;4433301;32;32099;-82
2024/03/29 07:30:00;;;;;;;0.00;0.00;;;;;;;13.24;55.21;99636.66;4445620;32;31660;-81
2024/03/29 07:32:30;;;;;;;0.00;0.00;;;;;;;12.80;56.28;99632.03;4451901;32;32576;-82
2024/03/29 07:34:58;;;;;;;0.00;0.00;;;;;;;12.64;56.12;99637.34;4444444;32;32335;-82
2024/03/29 07:37:24;;;;;;;0.00;0.00;;;;;;;13.01;55.66;99630.84;4458737;32;32575;-82
2024/03/29 07:39:51;;;;;;;1.55;0.43;;;;;;;12.97;55.64;99637.28;4436106;32;34405;-82
2024/03/29 07:42:19;;;;;;;0.00;0.00;;;;;;;13.17;54.80;99640.59;4448241;32;33967;-82
2024/03/29 07:44:45;;;;;;;0.00;0.00;;;;;;;13.43;54.99;99637.31;4445302;32;33970;-82
2024/03/29 07:47:15;;;;;;;0.00;0.00;;;;;;;13.56;54.18;99632.16;4463234;32;33311;-82
2024/03/29 07:49:42;;;;;;;0.05;0.05;;;;;;;13.61;53.23;99634.53;4432374;32;32374;-83
2024/03/29 07:52:09;;;;;;;0.00;0.00;;;;;;;13.97;52.89;99621.72;4443227;32;34077;-82
2024/03/29 07:54:36;;;;;;;0.20;0.13;;;;;;;13.99;52.18;99625.13;4445791;32;34695;-82
2024/03/29 07:57:03;;;;;;;0.00;0.00;;;;;;;14.28;52.89;99633.13;4473254;32;34853;-82
2024/03/29 07:59:29;;;;;;;0.00;0.00;;;;;;;14.40;51.01;99624.41;4445514;32;32615;-82
2024/03/29 08:01:57;;;;;;;0.00;0.00;;;;;;;14.39;51.13;99616.56;4434921;32;34123;-83
2024/03/29 08:04:24;;;;;;;0.00;0.00;;;;;;;14.34;52.14;99622.16;4416323;32;35414;-82
2024/03/29 08:06:54;;;;;;;0.00;0.00;;;;;;;15.02;50.26;99630.22;4449452;32;34100;-82
2024/03/29 08:09:25;;;;;;;0.00;0.00;;;;;;;15.19;49.91;99638.91;4446996;32;33264;-82
2024/03/29 08:11:52;;;;;;;0.23;0.20;;;;;;;15.40;49.14;99632.19;4474296;32;34110;-82
2024/03/29 08:14:19;;;;;;;0.00;0.00;;;;;;;15.18;48.55;99639.88;4446194;32;34324;-82
2024/03/29 08:16:45;;;;;;;0.00;0.00;;;;;;;15.07;48.55;99629.94;4446249;32;33928;-82
2024/03/29 08:19:12;;;;;;;0.00;0.00;;;;;;;15.02;48.78;99624.06;4432330;32;33973;-82
2024/03/29 08:21:39;;;;;;;0.20;0.20;;;;;;;14.78;49.31;99634.47;4445781;32;34133;-82
2024/03/29 08:24:06;;;;;;;0.00;0.00;;;;;;;14.86;48.78;99626.87;4442817;32;34072;-82
2024/03/29 08:26:32;;;;;;;0.00;0.00;;;;;;;15.56;48.59;99621.38;4454296;32;32775;-82
2024/03/29 08:28:59;;;;;;;0.15;0.00;;;;;;;15.86;47.50;99613.16;4459261;32;33397;-82
2024/03/29 08:31:26;;;;;;;0.00;0.00;;;;;;;15.76;46.37;99622.72;4446934;32;33331;-82
2024/03/29 08:33:53;;;;;;;0.10;0.10;;;;;;;16.29;46.40;99615.53;4433065;32;34523;-82
2024/03/29 08:36:19;;;;;;;0.00;0.00;;;;;;;16.32;46.12;99607.28;4443713;32;32634;-82
2024/03/29 08:38:47;;;;;;;0.00;0.00;;;;;;;16.49;45.50;99606.97;4458378;32;35799;-82
2024/03/29 08:41:14;;;;;;;0.03;0.03;;;;;;;16.86;44.43;99604.34;4462892;32;34557;-82
2024/03/29 08:43:41;;;;;;;0.00;0.00;;;;;;;16.79;43.61;99603.06;4451247;32;32580;-81
2024/03/29 08:46:09;;;;;;;0.00;0.00;;;;;;;16.71;44.45;99610.72;4449632;32;32432;-82
2024/03/29 08:48:37;;;;;;;0.00;0.00;;;;;;;16.43;44.04;99611.87;4446531;32;32194;-82
2024/03/29 08:51:04;;;;;;;0.00;0.00;;;;;;;16.82;43.13;99597.53;4449135;32;32738;-82
2024/03/29 08:53:30;;;;;;;0.00;0.00;;;;;;;17.22;43.37;99610.59;4461639;32;33912;-82
2024/03/29 08:55:57;;;;;;;0.32;0.32;;;;;;;16.95;42.78;99616.12;4448739;32;33462;-82
2024/03/29 08:58:24;;;;;;;0.00;0.00;;;;;;;17.03;41.50;99622.63;4449650;32;32210;-82
2024/03/29 09:00:56;;;;;;;0.25;0.25;;;;;;;17.21;42.07;99614.25;4448020;32;33218;-82
2024/03/29 09:03:23;;;;;;;0.08;0.08;;;;;;;17.14;42.24;99606.69;4458334;32;34027;-82
2024/03/29 09:05:51;;;;;;;0.15;0.15;;;;;;;17.18;43.88;99614.44;4448498;32;32780;-82
2024/03/29 09:08:18;;;;;;;1.27;0.47;;;;;;;16.75;43.62;99606.91;4461960;32;33094;-82
2024/03/29 09:10:45;;;;;;;0.00;0.00;;;;;;;17.10;43.88;99607.88;4450020;32;34899;-82
2024/03/29 09:13:11;;;;;;;0.10;0.10;;;;;;;17.23;43.54;99599.78;4451323;32;34019;-82
2024/03/29 09:15:38;;;;;;;0.03;0.03;;;;;;;17.28;42.92;99586.12;4450860;32;32847;-82
2024/03/29 09:18:26;;;;;;;0.00;0.00;;;;;;;17.29;41.86;99595.84;4447908;32;35375;-82
2024/03/29 09:20:58;;;;;;;0.10;0.10;;;;;;;17.44;41.56;99578.69;4449394;32;33563;-82
2024/03/29 09:23:28;;;;;;;0.00;0.00;;;;;;;17.30;41.73;99605.56;4463328;32;33512;-83
2024/03/29 09:25:57;;;;;;;0.00;0.00;;;;;;;17.59;40.75;99601.53;4460780;32;33610;-82
2024/03/29 09:28:24;;;;;;;0.00;0.00;;;;;;;18.08;41.36;99604.94;4449791;32;33184;-82
2024/03/29 09:30:57;;;;;;;0.00;0.00;;;;;;;18.02;40.82;99608.97;4447860;32;33850;-82
2024/03/29 09:33:24;;;;;;;1.17;0.47;;;;;;;18.09;40.26;99596.84;4463306;32;33055;-82
2024/03/29 09:35:51;;;;;;;0.00;0.00;;;;;;;17.93;39.92;99596.31;4446134;32;34437;-83
2024/03/29 09:38:18;;;;;;;0.00;0.00;;;;;;;17.83;41.37;99589.97;4430194;32;31446;-82
2024/03/29 09:40:44;;;;;;;0.00;0.00;;;;;;;17.72;40.45;99593.44;4445707;32;34643;-84
2024/03/29 09:43:14;;;;;;;0.00;0.00;;;;;;;17.94;41.25;99581.97;4437894;32;32625;-86
2024/03/29 09:45:41;;;;;;;0.03;0.00;;;;;;;17.54;42.03;99577.00;4442724;32;32909;-85
2024/03/29 09:48:08;;;;;;;2.62;0.62;;;;;;;17.46;41.64;99582.06;4438648;32;32482;-86
2024/03/29 09:50:36;;;;;;;0.20;0.20;;;;;;;17.71;42.25;99580.19;4460864;32;32732;-85
2024/03/29 09:53:08;;;;;;;1.60;0.20;;;;;;;17.95;41.49;99567.69;4447017;32;34635;-85
2024/03/29 09:55:36;;;;;;;0.00;0.00;;;;;;;18.13;41.09;99571.56;4442256;32;33533;-86
2024/03/29 09:58:05;;;;;;;0.00;0.00;;;;;;;18.00;41.68;99573.50;4448197;32;33331;-90
2024/03/29 10:00:31;;;;;;;0.00;0.00;;;;;;;17.69;41.95;99574.97;4432674;32;33535;-83
2024/03/29 10:03:00;;;;;;;0.00;0.00;;;;;;;17.92;41.39;99578.59;4458408;32;33382;-83
2024/03/29 10:05:29;;;;;;;0.10;0.10;;;;;;;18.11;41.84;99567.31;4444086;32;33217;-83
2024/03/29 10:07:56;;;;;;;1.27;0.45;;;;;;;18.61;41.61;99560.63;4431789;32;32596;-83
2024/03/29 10:10:23;;;;;;;0.00;0.00;;;;;;;19.08;40.55;99550.53;4428954;32;34601;-83
2024/03/29 10:12:50;;;;;;;0.00;0.00;;;;;;;18.75;40.70;99564.00;4449467;32;32581;-83
2024/03/29 10:15:20;;;;;;;0.00;0.00;;;;;;;18.62;41.84;99556.97;4447195;32;33553;-83
2024/03/29 10:17:50;;;;;;;0.00;0.00;;;;;;;18.68;41.58;99543.13;4435443;32;32235;-83
2024/03/29 10:20:18;;;;;;;0.00;0.00;;;;;;;18.60;41.71;99548.19;4435764;32;33281;-83
2024/03/29 10:22:46;;;;;;;0.00;0.00;;;;;;;18.49;41.65;99556.25;4434316;32;33396;-83
2024/03/29 10:25:15;;;;;;;0.00;0.00;;;;;;;18.54;42.06;99547.84;4432393;32;33185;-83
2024/03/29 10:27:42;;;;;;;0.25;0.25;;;;;;;18.63;41.72;99536.41;4449520;32;33025;-83
2024/03/29 10:30:10;;;;;;;0.00;0.00;;;;;;;18.63;42.53;99541.78;4448172;32;32608;-83
2024/03/29 10:32:41;;;;;;;0.05;0.00;;;;;;;18.69;42.48;99541.28;4438244;32;33954;-83
2024/03/29 10:35:09;;;;;;;7.87;0.65;;;;;;;18.93;43.34;99533.09;4462267;32;32809;-83
2024/03/29 10:37:38;;;;;;;0.10;0.00;;;;;;;19.10;42.41;99524.50;4444522;32;32138;-83
2024/03/29 10:40:10;;;;;;;1.55;0.55;;;;;;;19.15;42.94;99532.16;4449084;32;34897;-83
2024/03/29 10:42:38;;;;;;;0.00;0.00;;;;;;;19.12;41.91;99517.19;4462448;32;32392;-83
2024/03/29 10:45:08;;;;;;;0.00;0.00;;;;;;;19.39;41.52;99519.38;4439455;32;33238;-83
2024/03/29 10:47:36;;;;;;;0.15;0.15;;;;;;;19.89;40.87;99510.69;4436974;32;32894;-84
2024/03/29 10:50:05;;;;;;;0.00;0.00;;;;;;;19.65;42.15;99506.50;4443546;32;32007;-83
2024/03/29 10:52:32;;;;;;;0.00;0.00;;;;;;;19.86;42.38;99502.94;4446527;32;33002;-83
2024/03/29 10:54:59;;;;;;;0.00;0.00;;;;;;;19.99;41.05;99510.72;4435507;32;34522;-83
2024/03/29 10:57:26;;;;;;;0.00;0.00;;;;;;;19.82;41.88;99493.47;4462711;32;33233;-86
2024/03/29 10:59:56;;;;;;;0.80;0.47;;;;;;;19.65;41.96;99489.56;4449305;32;33436;-90
2024/03/29 11:02:48;;;;;;;0.08;0.08;;;;;;;20.37;41.05;99480.56;4431872;32;33113;-90
2024/03/29 11:05:16;;;;;;;0.20;0.20;;;;;;;20.35;41.13;99466.44;4456349;32;32613;-92
2024/03/29 11:07:45;;;;;;;0.00;0.00;;;;;;;20.54;41.41;99457.63;4434298;32;32285;-92
2024/03/29 11:10:23;;;;;;;0.00;0.00;;;;;;;20.26;42.29;99456.53;4459816;32;33920;-92
2024/03/29 11:12:56;;;;;;;0.10;0.10;;;;;;;20.75;41.40;99458.38;4441527;32;32883;-92
2024/03/29 11:15:28;;;;;;;0.05;0.05;;;;;;;20.27;40.76;99450.19;4444109;32;33019;-91
2024/03/29 11:17:57;;;;;;;0.00;0.00;;;;;;;20.51;40.65;99445.34;4431910;32;32488;-93
2024/03/29 11:20:39;;;;;;;0.00;0.00;;;;;;;20.55;41.30;99443.22;4445658;32;33238;-92
2024/03/29 11:23:10;;;;;;;2.62;0.35;;;;;;;20.75;40.72;99427.97;4457207;32;32847;-91
2024/03/29 11:25:45;;;;;;;0.20;0.20;;;;;;;21.01;40.27;99426.44;4432008;32;32319;-93
2024/03/29 11:28:23;;;;;;;0.00;0.00;;;;;;;21.09;40.60;99426.56;4438979;32;32632;-91
2024/03/29 11:30:52;;;;;;;0.03;0.03;;;;;;;20.80;41.38;99425.75;4447002;32;32846;-92
2024/03/29 11:33:45;;;;;;;0.45;0.45;;;;;;;21.27;40.63;99407.88;4444963;32;33892;-93
2024/03/29 11:36:18;;;;;;;0.20;0.20;;;;;;;21.45;40.91;99410.69;4446383;32;33010;-93
2024/03/29 11:38:46;;;;;;;0.00;0.00;;;;;;;21.42;40.34;99408.31;4441985;32;32663;-91
2024/03/29 11:41:14;;;;;;;0.35;0.30;;;;;;;21.69;39.38;99405.63;4453563;32;33567;-93
2024/03/29 11:43:43;;;;;;;0.13;0.13;;;;;;;20.80;41.39;99417.69;4446599;32;33433;-93
2024/03/29 11:46:12;;;;;;;0.32;0.25;;;;;;;20.93;42.36;99431.66;4430857;32;32600;-92